Connelly, New York
Current Conditions -  °F | °C
As of 11:14 AM on Wednesday 22 Oct 2014 (Local Time) from KPOU Reporting Station
Overcast Overcast  
Wind Chill: 52°   Ceiling: 1100
Heat Index: 52°   Visibility: 10mi
Dew Point: 48°   Wind: 12mph
Humidity: 86%   Direction: 360°N
Pressure: 29.99"   Gusts: 21mph
Location:  41.91°N, 73.99°W
Report Text: KPOU 221514Z 36010G18KT 10SM BKN011 OVC018 11/09 A2999 RMK AO2 RAB00E09 P0000 T01110089
Loading
Personal Weather Stations






























Interactive Weather Map
Tropical Storm Tracking
New forecast layout! Learn more

10-Day Weather Forecast

Advertisements
Track Severe Weather on mobile